Metar Cercanos

 

LEPA - Palma De Mallorc, Spain
Distance from station: ONO 38km
Actualización: 25/05/2018 06:30
Few Clouds
Few Clouds
 Viento del ENE
Viento: ENE 19 km/h
Temperatura: 19°C
Rocío: 14°C
Humedad: 73%
Barómetro: 1013 hPa
Clouds: Few Clouds
Visibility: 10 km
Cloud details: Few Clouds 762 m
2018/05/25 04:30 LEPA 250430Z 06010KT 9999 FEW025 19/14 Q1013 NOSIG
LEMH - Mahon/Menorca Is, Spain
Distance from station: ENE 105km
Actualización: 25/05/2018 06:30
Despejado
Despejado
 Viento del E
Viento: E 19 km/h
Temperatura: 18°C
Rocío: 16°C
Humedad: 88%
Barómetro: 1014 hPa
Resumen: Despejado
Visibility: greater than 10 km
2018/05/25 04:30 LEMH 250430Z 08010KT CAVOK 18/16 Q1014
 
LEIB - Ibiza/Es Codola, Spain
Distance from station: OSO 165km
Actualización: 25/05/2018 06:30
Despejado
Despejado
 Viento del ENE
Viento: ENE 24 km/h
Temperatura: 19°C
Rocío: 16°C
Humedad: 83%
Barómetro: 1011 hPa
Resumen: Despejado
Visibility: greater than 10 km
2018/05/25 04:30 LEIB 250430Z 07013KT CAVOK 19/16 Q1011 NOSIG
LEBL - Barcelona Airpor, Spain
Distance from station: NNO 225km
Actualización: 25/05/2018 06:30
Few Clouds
Few Clouds
 Viento del NNO
Viento: NNO 11 km/h
Temperatura: 17°C
Rocío: 11°C
Humedad: 68%
Barómetro: 1015 hPa
Clouds: Few Clouds
Visibility: 10 km
Cloud details: Few Clouds 671 m
Few Clouds 1219 m
2018/05/25 04:30 LEBL 250430Z 34006KT 9999 FEW022 FEW040CB 17/11 Q1015 NOSIG
 
LEVC - Valencia (civ/Mi, Spain
Distance from station: NO 188km
Actualización: 25/05/2018 06:30
Despejado
Despejado
 Viento del varies
Viento: varies 9 km/h
Temperatura: 20°C
Rocío: 10°C
Humedad: 53%
Barómetro: 1011 hPa
Resumen: Despejado
Visibility: greater than 10 km
2018/05/25 04:30 LEVC 250430Z VRB05KT CAVOK 20/10 Q1011 NOSIG
LEGE - Gerona/Costa Bra, Spain
Distance from station: N 276km
Actualización: 25/05/2018 06:30
Parcialmente nuboso
Parcialmente nuboso
 Viento del calm
Viento: Calma
Temperatura: 12°C
Rocío: 12°C
Humedad: 100%
Barómetro: 1016 hPa
Clouds: Parcialmente nuboso
Visibility: 9 km
2018/05/25 04:30 LEGE 250430Z 00000KT 9000 NSC 12/12 Q1016
 
LEAL - Alicante/El Alte, Spain
Distance from station: OSO 344km
Actualización: 25/05/2018 06:30
Few Clouds
Few Clouds
 Viento del ENE
Viento: ENE 19 km/h
Temperatura: 21°C
Rocío: 15°C
Humedad: 69%
Barómetro: 1009 hPa
Clouds: Few Clouds
Visibility: 10 km
Cloud details: Few Clouds 610 m
2018/05/25 04:30 LEAL 250430Z 06010KT 9999 FEW020 21/15 Q1009 NOSIG
LEAM - Almeria Airport, Spain
Distance from station: SSO 56km
Actualización: 25/05/2018 06:30
Few Clouds
Few Clouds
 Viento del ESE
Viento: ESE 6 km/h
Temperatura: 18°C
Rocío: 16°C
Humedad: 88%
Barómetro: 1010 hPa
Clouds: Few Clouds
Visibility: 10 km
Cloud details: Few Clouds 2743 m
2018/05/25 04:30 LEAM 250430Z 12003KT 080V160 9999 FEW090 18/16 Q1010
 
LEZG - Zaragoza (mil/Ci, Spain
Distance from station: NO 431km
Actualización: 25/05/2018 06:30
Parcialmente nuboso
Parcialmente nuboso
 Viento del NO
Viento: NO 6 km/h
Temperatura: 16°C
Rocío: 14°C
Humedad: 88%
Barómetro: 1014 hPa
Clouds: Parcialmente nuboso
Visibility: 10 km
Cloud details: Parcialmente nuboso 1524 m
Parcialmente nuboso 2713 m
2018/05/25 04:30 LEZG 250430Z 32003KT 290V020 9999 SCT050CB SCT089 16/14 Q1014
LEMD - Madrid/Barajas, Spain
Distance from station: ONO 234km
Actualización: 25/05/2018 06:50
Thunderstorm rain, Muy nuboso
Thunderstorm rain, Muy nuboso
 Viento del SO
Viento: SO 6 km/h
Temperatura: 15°C
Rocío: 13°C
Humedad: 88%
Barómetro: 1015 hPa
Resumen: Thunderstorm Rain
Clouds: Muy nuboso
Visibility: 10 km
Cloud details: Few Clouds 1219 m
Muy nuboso 1676 m
2018/05/25 04:50 LEMD 250450Z 23003KT 200V310 9999 TSRA FEW040CB BKN055 15/13 Q1015 R88/29//95 NOSIG
 
LEGR - Granada Airport, Spain
Distance from station: OSO 62km
Actualización: 25/05/2018 06:30
Muy nuboso
Muy nuboso
 Viento del calm
Viento: Calma
Temperatura: 14°C
Rocío: 11°C
Humedad: 82%
Barómetro: 1013 hPa
Clouds: Muy nuboso
Visibility: 10 km
Cloud details: Parcialmente nuboso 1067 m
Muy nuboso 2286 m
2018/05/25 04:30 LEGR 250430Z 00000KT 9999 SCT035 BKN075 14/11 Q1013
LEMG - Malaga (civ/Mil), Spain
Distance from station: OSO 227km
Actualización: 25/05/2018 06:30
Parcialmente nuboso
Parcialmente nuboso
 Viento del O
Viento: O 22 km/h
Temperatura: 17°C
Rocío: 11°C
Humedad: 68%
Barómetro: 1012 hPa
Clouds: Parcialmente nuboso
Visibility: 10 km
Cloud details: Parcialmente nuboso 1219 m
2018/05/25 04:30 LEMG 250430Z 26012KT 9999 SCT040 17/11 Q1012 TEMPO 4000 SHRA SCT030TCU
 
LEZL - Sevilla (civ/Mil, Spain
Distance from station: S 318km
Actualización: 25/05/2018 06:30
Muy nuboso
Muy nuboso
 Viento del SE
Viento: SE 9 km/h
Temperatura: 15°C
Rocío: 14°C
Humedad: 94%
Barómetro: 1013 hPa
Clouds: Muy nuboso
Visibility: 10 km
Cloud details: Muy nuboso 366 m
2018/05/25 04:30 LEZL 250430Z 14005KT 9999 BKN012 15/14 Q1013 NOSIG
LEVT - Vitoria, Spain
Distance from station: NO 226km
Actualización: 25/05/2018 06:30
Muy nuboso
Muy nuboso
 Viento del varies
Viento: varies 4 km/h
Temperatura: 14°C
Rocío: 12°C
Humedad: 88%
Barómetro: 1016 hPa
Clouds: Muy nuboso
Visibility: 10 km
Cloud details: Muy nuboso 762 m
2018/05/25 04:30 LEVT 250430Z VRB02KT 9999 BKN025 14/12 Q1016
 
LEBB - Bilbao/Sondica, Spain
Distance from station: NNO 235km
Actualización: 25/05/2018 06:30
Muy nuboso
Muy nuboso
 Viento del E
Viento: E 9 km/h
Temperatura: 16°C
Rocío: 15°C
Humedad: 94%
Barómetro: 1015 hPa
Clouds: Muy nuboso
Visibility: 10 km
Cloud details: Few Clouds 396 m
Muy nuboso 1981 m
2018/05/25 04:30 LEBB 250430Z 09005KT 9999 FEW013 BKN065 16/15 Q1015 NOSIG
LESO - San Sebastian/Fu, Spain
Distance from station: N 231km
Actualización: 25/05/2018 06:30
Parcialmente nuboso
Parcialmente nuboso
 Viento del OSO
Viento: OSO 7 km/h
Temperatura: 18°C
Rocío: 16°C
Humedad: 88%
Barómetro: 1015 hPa
Clouds: Parcialmente nuboso
Visibility: 10 km
Cloud details: Few Clouds 396 m
Parcialmente nuboso 1128 m
2018/05/25 04:30 LESO 250430Z 24004KT 210V270 9999 FEW013 SCT037 18/16 Q1015
 
LEVD - Valladolid(Mil/C, Spain
Distance from station: ONO 239km
Actualización: 24/05/2018 21:30
NOT Current
Thunderstorm, Lluvia débil, Showers, Parcialmente nuboso
Thunderstorm, Lluvia débil, Showers, Parcialmente nuboso
 Viento del NNE
Viento: NNE 15 km/h
Temperatura: 17°C
Rocío: 13°C
Humedad: 77%
Barómetro: 1013 hPa
Resumen: Thunderstorm, Lluvia débil, Showers
Clouds: Parcialmente nuboso
Visibility: 10 km
Cloud details: Few Clouds 1433 m
Parcialmente nuboso 1554 m
2018/05/24 19:30 LEVD 241930Z 02008KT 9999 TS -SHRA FEW047 SCT051CB 17/13 Q1013
LESA - Salamanca (civ/M, Spain
Distance from station: ONO 349km
Actualización: 24/05/2018 20:00
NOT Current
Light thunderstorm, Lluvia, Parcialmente nuboso
Light thunderstorm, Lluvia, Parcialmente nuboso
 Viento del NE
Viento: NE 24 km/h
Temperatura: 19°C
Rocío: 13°C
Humedad: 68%
Barómetro: 1011 hPa
Resumen: Light thunderstorm, Lluvia
Clouds: Parcialmente nuboso
Visibility: 10 km
Cloud details: Parcialmente nuboso 914 m
2018/05/24 18:00 LESA 241800Z 05013KT 020V080 9999 -TSRA SCT030CB 19/13 Q1011
 
LEXJ - Santander/Paraya, Spain
Distance from station: NNO 247km
Actualización: 25/05/2018 06:30
Lluvia débil, Muy nuboso
Lluvia débil, Muy nuboso
 Viento del E
Viento: E 15 km/h
Temperatura: 16°C
Rocío: 16°C
Humedad: 100%
Barómetro: 1013 hPa
Resumen: Lluvia débil
Clouds: Muy nuboso
Visibility: 9 km
Cloud details: Parcialmente nuboso 1067 m
Muy nuboso 2134 m
2018/05/25 04:30 LEXJ 250430Z 09008KT 050V120 9000 -RA SCT035 BKN070 16/16 Q1013 RERA
LEAS - Asturias/Aviles, Spain
Distance from station: NO 214km
Actualización: 25/05/2018 06:30
Patches of fog, Muy nuboso
Patches of fog, Muy nuboso
 Viento del ENE
Viento: ENE 9 km/h
Temperatura: 15°C
Rocío: 15°C
Humedad: 100%
Barómetro: 1014 hPa
Resumen: Patches of Fog
Clouds: Muy nuboso
Visibility: 1 km
Cloud details: Few Clouds 61 m
Muy nuboso 244 m
2018/05/25 04:30 LEAS 250430Z 06005KT 020V100 0900 R29/P2000 R11/1900N BCFG FEW002 BKN008 15/15 Q1014 NOSIG
 
LECO - La Coruna/Alvedr, Spain
Distance from station: ONO 222km
Actualización: 25/05/2018 06:30
Muy nuboso
Muy nuboso
 Viento del N
Viento: N 7 km/h
Temperatura: 15°C
Rocío: 13°C
Humedad: 88%
Barómetro: 1014 hPa
Clouds: Muy nuboso
Visibility: 10 km
Cloud details: Muy nuboso 518 m
2018/05/25 04:30 LECO 250430Z 36004KT 310V050 9999 BKN017 15/13 Q1014 NOSIG
LEVX - Vigo/Peinador, Spain
Distance from station: O 214km
Actualización: 25/05/2018 06:30
Despejado
Despejado
 Viento del varies
Viento: varies 4 km/h
Temperatura: 15°C
Rocío: 14°C
Humedad: 94%
Barómetro: 1011 hPa
Resumen: Despejado
Visibility: greater than 10 km
2018/05/25 04:30 LEVX 250430Z VRB02KT CAVOK 15/14 Q1011 NOSIG